createdAt,value
2023-02-19T00:00:02.207Z,0.16
2023-02-19T00:05:02.267Z,0.161
2023-02-19T00:10:02.271Z,0.112
2023-02-19T00:15:02.243Z,0.11
2023-02-19T00:20:02.263Z,0.113
2023-02-19T00:25:02.271Z,0.121
2023-02-19T00:30:02.373Z,0.121
2023-02-19T00:35:02.236Z,0.026000000000000002
2023-02-19T00:40:02.282Z,0
2023-02-19T00:45:02.438Z,0.005
2023-02-19T00:50:02.260Z,0
2023-02-19T00:55:02.237Z,0.001
2023-02-19T01:00:02.374Z,0.002
2023-02-19T01:05:02.285Z,0
2023-02-19T01:10:02.297Z,0
2023-02-19T01:15:02.261Z,0.046
2023-02-19T01:20:02.381Z,0.11
2023-02-19T01:25:02.287Z,0.114
2023-02-19T01:30:02.411Z,0.16
2023-02-19T01:35:02.327Z,0.157
2023-02-19T01:40:02.264Z,0.154
2023-02-19T01:45:02.252Z,0.112
2023-02-19T01:50:02.310Z,0.121
2023-02-19T01:55:02.305Z,0.095
2023-02-19T02:00:02.301Z,0
2023-02-19T02:05:02.270Z,0
2023-02-19T02:10:02.422Z,0
2023-02-19T02:15:02.254Z,0
2023-02-19T02:20:02.291Z,0.005
2023-02-19T02:25:02.300Z,0
2023-02-19T02:30:02.347Z,0.107
2023-02-19T02:35:02.264Z,0.108
2023-02-19T02:40:02.304Z,0.108
2023-02-19T02:45:02.383Z,0.109
2023-02-19T02:50:02.355Z,0.114
2023-02-19T02:55:02.769Z,0.121
2023-02-19T03:00:02.450Z,0.044
2023-02-19T03:05:02.383Z,0
2023-02-19T03:10:02.437Z,0
2023-02-19T03:15:02.303Z,0
2023-02-19T03:20:02.264Z,0
2023-02-19T03:25:02.347Z,0
2023-02-19T03:30:02.330Z,0.014
2023-02-19T03:35:02.325Z,0.112
2023-02-19T03:40:02.249Z,0.10400000000000001
2023-02-19T03:45:02.295Z,0.11
2023-02-19T03:50:02.304Z,0.147
2023-02-19T03:55:02.248Z,0.158
2023-02-19T04:00:02.324Z,0.158
2023-02-19T04:05:02.276Z,0.047
2023-02-19T04:10:02.280Z,0
2023-02-19T04:15:02.356Z,0
2023-02-19T04:20:02.341Z,0
2023-02-19T04:25:02.384Z,0
2023-02-19T04:30:02.405Z,0
2023-02-19T04:35:02.299Z,0
2023-02-19T04:40:02.456Z,0.059000000000000004
2023-02-19T04:45:02.331Z,0.167
2023-02-19T04:50:02.268Z,0.15
2023-02-19T04:55:02.348Z,0.11900000000000001
2023-02-19T05:00:02.383Z,0.11900000000000001
2023-02-19T05:05:02.399Z,0.106
2023-02-19T05:10:02.282Z,0.107
2023-02-19T05:15:02.322Z,0.034
2023-02-19T05:20:02.421Z,0
2023-02-19T05:25:02.342Z,0
2023-02-19T05:30:02.770Z,0
2023-02-19T05:35:02.368Z,0
2023-02-19T05:40:02.432Z,0
2023-02-19T05:45:02.381Z,0.001
2023-02-19T05:50:02.350Z,0
2023-02-19T05:55:02.383Z,0.093
2023-02-19T06:00:02.536Z,0.121
2023-02-19T06:05:02.378Z,0.122
2023-02-19T06:10:02.380Z,0.075
2023-02-19T06:15:02.458Z,0
2023-02-19T06:20:02.394Z,0
2023-02-19T06:25:02.502Z,0
2023-02-19T06:30:02.463Z,0.02
2023-02-19T06:35:02.419Z,0.113
2023-02-19T06:40:02.402Z,8.512
2023-02-19T06:45:02.412Z,32.259
2023-02-19T06:50:02.383Z,35.288000000000004
2023-02-19T06:55:02.462Z,75.162
2023-02-19T07:00:02.695Z,127.661
2023-02-19T07:05:02.505Z,154.481
2023-02-19T07:10:02.495Z,180.302
2023-02-19T07:15:02.477Z,220.679
2023-02-19T07:20:02.483Z,365.932
2023-02-19T07:25:02.786Z,450.729
2023-02-19T07:30:02.538Z,572.178
2023-02-19T07:35:02.465Z,1029.7350000000001
2023-02-19T07:40:02.491Z,1299.598
2023-02-19T07:45:02.483Z,1151.364
2023-02-19T07:50:02.538Z,1068.248
2023-02-19T07:55:02.528Z,1627.645
2023-02-19T08:00:02.528Z,1710.068
2023-02-19T08:05:02.518Z,1773.6770000000001
2023-02-19T08:10:02.479Z,1683.786
2023-02-19T08:15:02.559Z,1838.48
2023-02-19T08:20:02.507Z,2027.8980000000001
2023-02-19T08:25:02.488Z,2350.904
2023-02-19T08:30:02.593Z,2800.114
2023-02-19T08:35:02.507Z,2651.333
2023-02-19T08:40:02.605Z,3113.185
2023-02-19T08:45:02.556Z,2768.856
2023-02-19T08:50:02.534Z,2990.888
2023-02-19T08:55:02.477Z,3243.233
2023-02-19T09:00:02.854Z,3962.694
2023-02-19T09:05:02.536Z,3285.312
2023-02-19T09:10:02.525Z,4527.094
2023-02-19T09:15:02.573Z,4782.613
2023-02-19T09:20:02.508Z,4968.782
2023-02-19T09:25:02.555Z,4073.918
2023-02-19T09:30:02.631Z,4937.453
2023-02-19T09:35:02.593Z,5424.736
2023-02-19T09:40:02.586Z,5552.609
2023-02-19T09:45:02.675Z,6130.334
2023-02-19T09:50:02.647Z,4554.8330000000005
2023-02-19T09:55:02.562Z,2496.314
2023-02-19T10:00:02.621Z,926.5450000000001
2023-02-19T10:05:02.684Z,3390.303
2023-02-19T10:10:02.698Z,2057.948
2023-02-19T10:15:02.648Z,2990.262
2023-02-19T10:20:02.845Z,1450.528
2023-02-19T10:25:02.695Z,1491.712
2023-02-19T10:30:02.827Z,4868.724
2023-02-19T10:35:02.753Z,898.456
2023-02-19T10:40:02.696Z,3181.501
2023-02-19T10:45:02.762Z,7161.999
2023-02-19T10:50:04.567Z,6810.043000000001
2023-02-19T10:55:02.757Z,7198.505
2023-02-19T11:00:02.800Z,6488.976000000001
2023-02-19T11:05:02.818Z,3889.5860000000002
2023-02-19T11:10:02.731Z,7393.347
2023-02-19T11:15:02.747Z,7583.649
2023-02-19T11:20:02.761Z,7071.687
2023-02-19T11:25:02.802Z,6211.335
2023-02-19T11:30:02.874Z,7416.774
2023-02-19T11:35:02.818Z,7007.2660000000005
2023-02-19T11:40:02.767Z,5968.689
2023-02-19T11:45:02.821Z,5920.5
2023-02-19T11:50:02.837Z,6037.841
2023-02-19T11:55:02.810Z,7153.794
2023-02-19T12:00:02.848Z,7111.126
2023-02-19T12:05:02.859Z,7081.884
2023-02-19T12:10:02.903Z,7056.718
2023-02-19T12:15:02.863Z,6968.918000000001
2023-02-19T12:20:01.129Z,6947.991
2023-02-19T12:25:01.079Z,6941.578
2023-02-19T12:30:01.190Z,6915.138
2023-02-19T12:35:01.099Z,6872.2
2023-02-19T12:40:01.318Z,6814.049
2023-02-19T12:45:01.087Z,6788.294
2023-02-19T12:50:01.106Z,6739.782
2023-02-19T12:55:01.226Z,6644.808
2023-02-19T13:00:01.098Z,6601.879
2023-02-19T13:05:01.358Z,6333.793000000001
2023-02-19T13:25:01.557Z,5893.397
2023-02-19T13:30:01.271Z,5672.7
2023-02-19T13:35:01.214Z,5458.637
2023-02-19T13:40:01.282Z,5206.182
2023-02-19T13:45:01.360Z,5139.044
2023-02-19T13:50:01.300Z,4215.222
2023-02-19T13:55:01.388Z,3091.1620000000003
2023-02-19T14:00:01.548Z,3208.938
2023-02-19T14:05:01.288Z,4050.256
2023-02-19T14:10:01.396Z,3525.915
2023-02-19T14:15:01.288Z,3267.765
2023-02-19T14:20:01.370Z,3129.6820000000002
2023-02-19T14:25:01.332Z,2777.259
2023-02-19T14:30:01.419Z,2718.476
2023-02-19T14:35:01.380Z,2180.053
2023-02-19T14:40:01.190Z,2607.326
2023-02-19T14:45:01.402Z,1742.046
2023-02-19T14:50:01.260Z,1383.25
2023-02-19T14:55:01.270Z,1362.29
2023-02-19T15:00:01.258Z,1231.78
2023-02-19T15:05:01.276Z,970.436
2023-02-19T15:10:03.698Z,333.016
2023-02-19T15:15:01.169Z,449.128
2023-02-19T15:20:01.216Z,437.29
2023-02-19T15:25:01.189Z,414.142
2023-02-19T15:30:01.337Z,387.734
2023-02-19T15:35:01.239Z,281.371
2023-02-19T15:40:01.250Z,197.161
2023-02-19T15:45:01.322Z,200.132
2023-02-19T15:50:01.363Z,168.383
2023-02-19T15:55:01.251Z,120.938
2023-02-19T16:00:01.423Z,80.688
2023-02-19T16:05:01.312Z,30.856
2023-02-19T16:10:01.240Z,8.552
2023-02-19T16:15:01.209Z,18.071
2023-02-19T16:20:01.352Z,10.685
2023-02-19T16:25:01.236Z,0.078
2023-02-19T16:30:01.361Z,0
2023-02-19T16:35:01.307Z,0.001
2023-02-19T16:40:01.337Z,0
2023-02-19T16:45:01.350Z,0
2023-02-19T16:50:01.305Z,0.052000000000000005
2023-02-19T16:55:01.306Z,0.13
2023-02-19T17:00:01.454Z,0.128
2023-02-19T17:05:01.297Z,0.126
2023-02-19T17:10:01.267Z,0.128
2023-02-19T17:15:01.314Z,0.14100000000000001
2023-02-19T17:20:01.354Z,0.18
2023-02-19T17:25:01.362Z,0.17200000000000001
2023-02-19T17:30:01.389Z,0.14400000000000002
2023-02-19T17:35:01.343Z,0.116
2023-02-19T17:40:01.400Z,0.025
2023-02-19T17:45:01.348Z,0
2023-02-19T17:50:01.623Z,0
2023-02-19T17:55:01.356Z,0
2023-02-19T18:00:01.421Z,0
2023-02-19T18:05:01.427Z,0.043000000000000003
2023-02-19T18:10:01.386Z,0.17400000000000002
2023-02-19T18:15:01.390Z,0.17300000000000001
2023-02-19T18:20:01.585Z,0.124
2023-02-19T18:25:01.381Z,0.128
2023-02-19T18:30:01.500Z,0.107
2023-02-19T18:35:01.360Z,0.108
2023-02-19T18:40:01.409Z,0.107
2023-02-19T18:45:01.594Z,0.105
2023-02-19T18:50:01.564Z,0.14100000000000001
2023-02-19T18:55:01.634Z,0.068
2023-02-19T19:00:01.434Z,0
2023-02-19T19:05:01.650Z,0
2023-02-19T19:10:01.659Z,0
2023-02-19T19:15:01.636Z,0
2023-02-19T19:20:01.588Z,0.059000000000000004
2023-02-19T19:25:01.825Z,0.125
2023-02-19T19:30:01.651Z,0.128
2023-02-19T19:35:01.622Z,0.125
2023-02-19T19:40:01.590Z,0.17200000000000001
2023-02-19T19:45:01.726Z,0.169
2023-02-19T19:50:01.580Z,0.17
2023-02-19T19:55:01.659Z,0.124
2023-02-19T20:00:01.649Z,0.073
2023-02-19T20:05:01.641Z,0
2023-02-19T20:10:01.590Z,0
2023-02-19T20:15:01.664Z,0
2023-02-19T20:20:01.685Z,0
2023-02-19T20:25:01.715Z,0
2023-02-19T20:30:02.028Z,0.085
2023-02-19T20:35:01.617Z,0.17200000000000001
2023-02-19T20:40:01.617Z,0.136
2023-02-19T20:45:01.704Z,0.124
2023-02-19T20:50:01.667Z,0.123
2023-02-19T20:55:01.650Z,0.124
2023-02-19T21:00:01.680Z,0.121
2023-02-19T21:05:01.629Z,0.114
2023-02-19T21:10:01.648Z,0
2023-02-19T21:15:01.724Z,0.001
2023-02-19T21:20:01.606Z,0
2023-02-19T21:25:01.637Z,0
2023-02-19T21:30:01.611Z,0
2023-02-19T21:35:01.826Z,0.056
2023-02-19T21:40:01.617Z,0.11
2023-02-19T21:45:01.524Z,0.111
2023-02-19T21:50:01.587Z,0.12
2023-02-19T21:55:01.501Z,0.122
2023-02-19T22:00:01.709Z,0.154
2023-02-19T22:05:01.573Z,0.17300000000000001
2023-02-19T22:10:01.514Z,0.17300000000000001
2023-02-19T22:15:01.703Z,0.084
2023-02-19T22:20:01.668Z,0
2023-02-19T22:25:01.604Z,0
2023-02-19T22:30:01.695Z,0
2023-02-19T22:35:01.595Z,0
2023-02-19T22:40:01.621Z,0
2023-02-19T22:45:01.579Z,0.069
2023-02-19T22:50:01.673Z,0.166
2023-02-19T22:55:01.654Z,0.162
2023-02-19T23:00:01.633Z,0.149
2023-02-19T23:05:01.644Z,0.12
2023-02-19T23:10:01.681Z,0.123
2023-02-19T23:15:01.638Z,0.123
2023-02-19T23:20:01.702Z,0.122
2023-02-19T23:25:01.590Z,0.124
2023-02-19T23:30:01.702Z,0.121
2023-02-19T23:35:01.626Z,0.039
2023-02-19T23:40:01.698Z,0.001
2023-02-19T23:45:01.660Z,0
2023-02-19T23:50:01.654Z,0
2023-02-19T23:55:02.181Z,0
